Time;durP1;ratioP1;P1;durP2;ratioP2;P2;SDS_P1;SDS_P2;PMS_P1;PMS_P2;Temp;Humidity;BMP_temperature;BMP_pressure;BME280_temperature;BME280_humidity;BME280_pressure;Samples;Min_cycle;Max_cycle;Signal;HPM_P1;HPM_P2
2023/10/02 00:01:53;;;;;;;25.67;6.85;;;;;;;;;;5045544;28;20411;-74
2023/10/02 00:04:23;;;;;;;26.83;6.68;;;;;;;;;;5020981;28;20415;-73
2023/10/02 00:07:05;;;;;;;24.45;7.45;;;;;;;;;;5028682;28;20937;-74
2023/10/02 00:09:34;;;;;;;25.30;6.00;;;;;;;;;;5028610;28;20403;-73
2023/10/02 00:12:01;;;;;;;23.70;6.15;;;;;;;;;;5030786;28;20414;-74
2023/10/02 00:14:34;;;;;;;24.17;6.00;;;;;;;;;;5029563;28;20423;-74
2023/10/02 00:17:13;;;;;;;23.73;6.65;;;;;;;;;;5031656;28;20780;-72
2023/10/02 00:19:44;;;;;;;25.65;7.05;;;;;;;;;;5030683;28;20410;-74
2023/10/02 00:22:34;;;;;;;24.35;7.05;;;;;;;;;;5030133;28;20399;-73
2023/10/02 00:25:00;;;;;;;27.08;6.97;;;;;;;;;;5030815;28;20728;-75
2023/10/02 00:27:28;;;;;;;24.90;6.07;;;;;;;;;;5028863;28;20403;-72
2023/10/02 00:29:58;;;;;;;22.05;6.30;;;;;;;;;;5025534;28;20417;-75
2023/10/02 00:32:29;;;;;;;24.17;7.32;;;;;;;;;;5033848;28;20438;-72
2023/10/02 00:34:58;;;;;;;24.30;5.90;;;;;;;;;;5042527;28;20995;-73
2023/10/02 00:37:43;;;;;;;25.60;6.40;;;;;;;;;;5038919;28;20423;-74
2023/10/02 00:40:14;;;;;;;23.55;6.00;;;;;;;;;;5033086;28;20502;-74
2023/10/02 00:42:40;;;;;;;27.48;6.68;;;;;;;;;;5032449;28;20426;-74
2023/10/02 00:45:08;;;;;;;23.08;5.80;;;;;;;;;;5035010;28;20499;-74
2023/10/02 00:47:42;;;;;;;24.83;6.82;;;;;;;;;;5034145;28;20852;-74
2023/10/02 00:50:10;;;;;;;26.52;7.15;;;;;;;;;;5039609;28;21017;-73
2023/10/02 00:52:40;;;;;;;26.00;7.00;;;;;;;;;;5040391;28;20407;-73
2023/10/02 00:55:08;;;;;;;27.67;8.80;;;;;;;;;;5018613;28;20414;-74
2023/10/02 00:57:36;;;;;;;28.70;9.27;;;;;;;;;;5031757;28;20427;-74
2023/10/02 01:00:06;;;;;;;28.10;7.55;;;;;;;;;;5033476;28;20494;-74
2023/10/02 01:02:35;;;;;;;24.37;7.30;;;;;;;;;;5032402;28;20418;-72
2023/10/02 01:05:06;;;;;;;25.60;6.50;;;;;;;;;;5031326;28;20770;-75
2023/10/02 01:07:33;;;;;;;26.45;6.32;;;;;;;;;;5037075;28;20409;-74
2023/10/02 01:10:07;;;;;;;29.52;7.80;;;;;;;;;;5033088;28;20430;-72
2023/10/02 01:12:43;;;;;;;27.25;6.63;;;;;;;;;;5021654;28;20473;-74
2023/10/02 01:15:12;;;;;;;24.23;6.07;;;;;;;;;;5032760;28;20418;-73
2023/10/02 01:17:39;;;;;;;25.88;6.47;;;;;;;;;;5036996;28;20419;-73
2023/10/02 01:20:19;;;;;;;27.38;7.40;;;;;;;;;;5033541;28;20406;-74
2023/10/02 01:22:47;;;;;;;25.13;6.03;;;;;;;;;;5037141;28;20465;-72
2023/10/02 01:25:16;;;;;;;26.83;6.75;;;;;;;;;;5039563;28;20428;-72
2023/10/02 01:27:47;;;;;;;26.42;6.55;;;;;;;;;;5015547;28;20401;-74
2023/10/02 01:30:21;;;;;;;23.55;6.45;;;;;;;;;;5047273;28;20422;-73
2023/10/02 01:33:06;;;;;;;24.70;7.10;;;;;;;;;;5030123;28;20413;-73
2023/10/02 01:35:34;;;;;;;25.58;6.80;;;;;;;;;;5033122;28;20419;-73
2023/10/02 01:38:00;;;;;;;25.43;6.70;;;;;;;;;;5019948;28;20990;-74
2023/10/02 01:40:33;;;;;;;26.25;5.90;;;;;;;;;;5032562;28;20489;-75
2023/10/02 01:43:11;;;;;;;24.85;6.68;;;;;;;;;;5046883;28;20419;-74
2023/10/02 01:45:42;;;;;;;23.90;6.20;;;;;;;;;;5020377;28;20457;-72
2023/10/02 01:48:12;;;;;;;25.95;7.20;;;;;;;;;;5038611;28;20410;-74
2023/10/02 01:50:40;;;;;;;25.33;6.85;;;;;;;;;;5016208;28;20416;-74
2023/10/02 01:53:06;;;;;;;25.77;7.55;;;;;;;;;;5033181;28;20443;-74
2023/10/02 01:55:35;;;;;;;25.02;5.70;;;;;;;;;;5039501;28;20418;-73
2023/10/02 01:58:16;;;;;;;26.48;6.40;;;;;;;;;;5027811;28;20859;-73
2023/10/02 02:00:45;;;;;;;24.65;5.88;;;;;;;;;;5027200;28;20421;-73
2023/10/02 02:03:15;;;;;;;27.52;7.60;;;;;;;;;;5031710;28;20411;-72
2023/10/02 02:05:46;;;;;;;23.77;6.63;;;;;;;;;;5017045;28;20440;-74
2023/10/02 02:08:22;;;;;;;27.95;7.03;;;;;;;;;;5026469;28;20401;-73
2023/10/02 02:10:51;;;;;;;24.85;6.35;;;;;;;;;;5030170;28;20495;-74
2023/10/02 02:13:18;;;;;;;23.88;6.90;;;;;;;;;;5046779;28;20427;-73
2023/10/02 02:15:45;;;;;;;23.48;6.60;;;;;;;;;;5032150;28;20443;-72
2023/10/02 02:18:14;;;;;;;25.38;6.65;;;;;;;;;;5033292;28;20554;-72
2023/10/02 02:20:44;;;;;;;25.15;6.50;;;;;;;;;;5030908;28;20411;-74
2023/10/02 02:23:14;;;;;;;26.33;6.50;;;;;;;;;;5018978;28;20411;-73
2023/10/02 02:25:41;;;;;;;33.45;8.20;;;;;;;;;;5036773;28;20423;-74
2023/10/02 02:28:09;;;;;;;24.70;6.57;;;;;;;;;;5031911;28;20411;-74
2023/10/02 02:30:40;;;;;;;23.43;6.73;;;;;;;;;;5030955;28;20527;-74
2023/10/02 02:33:12;;;;;;;24.65;6.00;;;;;;;;;;5029812;28;20476;-74
2023/10/02 02:35:44;;;;;;;25.10;6.65;;;;;;;;;;5033268;28;20415;-74
2023/10/02 02:38:16;;;;;;;26.85;7.10;;;;;;;;;;5040311;28;20447;-72
2023/10/02 02:40:43;;;;;;;24.92;6.80;;;;;;;;;;5029392;28;20494;-73
2023/10/02 02:43:19;;;;;;;25.00;6.50;;;;;;;;;;5031779;28;20437;-73
2023/10/02 02:45:45;;;;;;;23.95;6.30;;;;;;;;;;5033706;28;20494;-71
2023/10/02 02:48:15;;;;;;;26.42;6.75;;;;;;;;;;5029897;28;20412;-74
2023/10/02 02:50:43;;;;;;;26.80;7.38;;;;;;;;;;5033922;28;20448;-74
2023/10/02 02:53:21;;;;;;;28.17;6.60;;;;;;;;;;5037943;28;20411;-74
2023/10/02 02:56:17;;;;;;;27.92;6.60;;;;;;;;;;5030084;28;20425;-72
2023/10/02 02:58:48;;;;;;;25.27;7.93;;;;;;;;;;5046171;28;20419;-74
2023/10/02 03:01:21;;;;;;;25.85;6.25;;;;;;;;;;5020220;28;20499;-74
2023/10/02 03:03:49;;;;;;;27.38;7.75;;;;;;;;;;5037069;28;20407;-72
2023/10/02 03:06:17;;;;;;;23.65;6.03;;;;;;;;;;5035905;28;20804;-72
2023/10/02 03:08:44;;;;;;;27.30;6.80;;;;;;;;;;5036621;28;20890;-74
2023/10/02 03:11:11;;;;;;;25.52;6.63;;;;;;;;;;5030266;28;20487;-75
2023/10/02 03:13:40;;;;;;;27.05;7.20;;;;;;;;;;5031167;28;20870;-75
2023/10/02 03:16:12;;;;;;;26.15;7.07;;;;;;;;;;5030013;28;20415;-73
2023/10/02 03:18:43;;;;;;;26.23;7.28;;;;;;;;;;5031358;28;20446;-73
2023/10/02 03:21:21;;;;;;;27.40;7.40;;;;;;;;;;5038033;28;20474;-73
2023/10/02 03:23:49;;;;;;;26.80;7.55;;;;;;;;;;5012248;28;20449;-74
2023/10/02 03:29:02;;;;;;;26.75;7.00;;;;;;;;;;5029830;28;20399;-74
2023/10/02 03:31:34;;;;;;;25.17;7.17;;;;;;;;;;5027323;28;20417;-73
2023/10/02 03:34:06;;;;;;;26.55;6.80;;;;;;;;;;5030109;28;20399;-74
2023/10/02 03:36:47;;;;;;;23.70;6.88;;;;;;;;;;5030068;28;20424;-73
2023/10/02 03:39:23;;;;;;;25.02;6.55;;;;;;;;;;5030642;28;20427;-74
2023/10/02 03:41:55;;;;;;;26.13;6.95;;;;;;;;;;5031379;28;20461;-74
2023/10/02 03:44:24;;;;;;;27.10;6.70;;;;;;;;;;5030867;28;20527;-74
2023/10/02 03:46:53;;;;;;;26.83;6.57;;;;;;;;;;5031270;28;20983;-73
2023/10/02 03:49:23;;;;;;;26.15;8.20;;;;;;;;;;5031391;28;20435;-74
2023/10/02 03:51:50;;;;;;;25.50;6.75;;;;;;;;;;5028842;28;20523;-73
2023/10/02 03:54:17;;;;;;;29.17;7.53;;;;;;;;;;5031074;28;20824;-72
2023/10/02 03:56:47;;;;;;;25.93;7.20;;;;;;;;;;5028138;28;20412;-72
2023/10/02 03:59:17;;;;;;;26.05;7.10;;;;;;;;;;5002484;28;20416;-74
2023/10/02 04:01:43;;;;;;;23.95;6.82;;;;;;;;;;5030958;28;20490;-74
2023/10/02 04:06:42;;;;;;;25.02;6.50;;;;;;;;;;5033319;28;20493;-74
2023/10/02 04:09:21;;;;;;;25.15;6.75;;;;;;;;;;5034226;28;20872;-73
2023/10/02 04:11:51;;;;;;;27.98;7.13;;;;;;;;;;5023971;28;20403;-72
2023/10/02 04:14:17;;;;;;;26.02;7.10;;;;;;;;;;5034553;28;20417;-72
2023/10/02 04:16:46;;;;;;;25.55;7.28;;;;;;;;;;5034209;28;20494;-72
2023/10/02 04:19:22;;;;;;;27.42;7.20;;;;;;;;;;5035086;28;20510;-73
2023/10/02 04:21:51;;;;;;;26.65;7.10;;;;;;;;;;5049484;28;21042;-73
2023/10/02 04:24:23;;;;;;;25.98;7.38;;;;;;;;;;5039577;28;20442;-73
2023/10/02 04:26:54;;;;;;;25.23;7.53;;;;;;;;;;5041756;28;20407;-74
2023/10/02 04:34:37;;;;;;;28.20;7.72;;;;;;;;;;5034194;28;20505;-73
2023/10/02 04:37:19;;;;;;;24.10;6.65;;;;;;;;;;5034408;28;20501;-73
2023/10/02 04:42:21;;;;;;;29.13;7.28;;;;;;;;;;5034793;28;20886;-72
2023/10/02 04:44:56;;;;;;;27.63;7.80;;;;;;;;;;5040236;28;20414;-74
2023/10/02 04:47:26;;;;;;;25.80;8.10;;;;;;;;;;5022874;28;20435;-73
2023/10/02 04:55:24;;;;;;;26.20;7.18;;;;;;;;;;5034006;28;20453;-73
2023/10/02 04:57:52;;;;;;;26.38;7.38;;;;;;;;;;5032316;28;20421;-73
2023/10/02 05:00:34;;;;;;;24.98;7.18;;;;;;;;;;5032334;28;20423;-72
2023/10/02 05:03:25;;;;;;;26.08;7.30;;;;;;;;;;5039802;28;20410;-72
2023/10/02 05:05:53;;;;;;;27.77;7.20;;;;;;;;;;5014536;28;20899;-74
2023/10/02 05:08:21;;;;;;;24.38;6.00;;;;;;;;;;5038072;28;20413;-74
2023/10/02 05:10:56;;;;;;;25.70;7.40;;;;;;;;;;5038716;28;20415;-73
2023/10/02 05:16:12;;;;;;;26.42;6.90;;;;;;;;;;5032643;28;20406;-73
2023/10/02 05:18:44;;;;;;;26.37;7.50;;;;;;;;;;5032087;28;20415;-74
2023/10/02 05:21:16;;;;;;;26.15;6.75;;;;;;;;;;5032758;28;20414;-74
2023/10/02 05:23:56;;;;;;;29.95;6.70;;;;;;;;;;5032156;28;20509;-74
2023/10/02 05:26:44;;;;;;;27.95;6.90;;;;;;;;;;5035360;28;20418;-73
2023/10/02 05:29:17;;;;;;;24.75;6.65;;;;;;;;;;5030867;28;20400;-73
2023/10/02 05:31:46;;;;;;;24.17;6.20;;;;;;;;;;5047174;28;20908;-73
2023/10/02 05:34:23;;;;;;;26.07;7.00;;;;;;;;;;5032296;28;20419;-75
2023/10/02 05:37:11;;;;;;;24.70;7.45;;;;;;;;;;5030725;28;20410;-74
2023/10/02 05:39:39;;;;;;;23.60;6.63;;;;;;;;;;5019512;28;20486;-75
2023/10/02 05:42:07;;;;;;;25.65;6.65;;;;;;;;;;5032444;28;20759;-74
2023/10/02 05:44:34;;;;;;;25.38;6.40;;;;;;;;;;5032663;28;20413;-72
2023/10/02 05:47:07;;;;;;;25.88;7.15;;;;;;;;;;5031520;28;20411;-74
2023/10/02 05:49:38;;;;;;;24.50;6.75;;;;;;;;;;5046299;28;20419;-74
2023/10/02 05:52:07;;;;;;;28.15;6.85;;;;;;;;;;5032395;28;20407;-74
2023/10/02 05:54:47;;;;;;;25.80;7.25;;;;;;;;;;5047099;28;20437;-75
2023/10/02 05:57:14;;;;;;;28.15;8.10;;;;;;;;;;5033135;28;20411;-73
2023/10/02 05:59:44;;;;;;;23.50;6.20;;;;;;;;;;5030560;28;20480;-74
2023/10/02 06:02:14;;;;;;;24.63;6.63;;;;;;;;;;5038163;28;20513;-74
2023/10/02 06:04:48;;;;;;;30.80;8.15;;;;;;;;;;5036047;28;20403;-73
2023/10/02 06:07:40;;;;;;;27.30;7.53;;;;;;;;;;5043656;28;20451;-74
2023/10/02 06:10:18;;;;;;;25.05;7.00;;;;;;;;;;5033336;28;20403;-74
2023/10/02 06:12:47;;;;;;;26.02;7.40;;;;;;;;;;5032679;28;20418;-74
2023/10/02 06:18:01;;;;;;;24.92;6.90;;;;;;;;;;5030513;28;20492;-74
2023/10/02 06:20:28;;;;;;;25.17;7.28;;;;;;;;;;5031780;28;20406;-73
2023/10/02 06:23:05;;;;;;;27.48;7.78;;;;;;;;;;5029381;28;20423;-72
2023/10/02 06:25:32;;;;;;;26.83;8.00;;;;;;;;;;5030232;28;20414;-73
2023/10/02 06:28:19;;;;;;;25.52;7.05;;;;;;;;;;5031951;28;20516;-74
2023/10/02 06:30:49;;;;;;;26.85;6.90;;;;;;;;;;5031526;28;20418;-73
2023/10/02 06:33:17;;;;;;;26.27;6.88;;;;;;;;;;5047454;28;20407;-75
2023/10/02 06:35:45;;;;;;;26.60;6.80;;;;;;;;;;5036364;28;20427;-75
2023/10/02 06:38:16;;;;;;;26.50;7.40;;;;;;;;;;5031451;28;20502;-72
2023/10/02 06:40:55;;;;;;;26.30;7.23;;;;;;;;;;5029827;28;20434;-74
2023/10/02 06:43:29;;;;;;;24.70;6.50;;;;;;;;;;5031347;28;20406;-74
2023/10/02 06:46:06;;;;;;;27.00;6.55;;;;;;;;;;5021058;28;20434;-73
2023/10/02 06:48:36;;;;;;;25.58;7.10;;;;;;;;;;5031608;28;20395;-73
2023/10/02 06:51:07;;;;;;;28.00;6.72;;;;;;;;;;5028775;28;20466;-74
2023/10/02 06:53:35;;;;;;;25.83;7.05;;;;;;;;;;5030366;28;20407;-73
2023/10/02 06:56:07;;;;;;;27.27;7.40;;;;;;;;;;5027994;28;21265;-73
2023/10/02 06:58:49;;;;;;;25.38;6.60;;;;;;;;;;5034208;28;20483;-75
2023/10/02 07:01:19;;;;;;;27.17;6.87;;;;;;;;;;5013548;28;20471;-72
2023/10/02 07:03:55;;;;;;;24.25;6.55;;;;;;;;;;5034346;28;20406;-73
2023/10/02 07:06:26;;;;;;;24.55;6.53;;;;;;;;;;5005955;28;20426;-72
2023/10/02 07:09:13;;;;;;;27.45;7.80;;;;;;;;;;5033475;28;20472;-71
2023/10/02 07:11:43;;;;;;;22.60;6.53;;;;;;;;;;5030073;28;20967;-73
2023/10/02 07:14:10;;;;;;;24.95;7.13;;;;;;;;;;5029189;28;20864;-73
2023/10/02 07:16:37;;;;;;;26.40;6.90;;;;;;;;;;5029765;28;20791;-72
2023/10/02 07:19:04;;;;;;;24.60;6.38;;;;;;;;;;5029957;28;20421;-73
2023/10/02 07:21:31;;;;;;;22.90;6.07;;;;;;;;;;5031079;28;20963;-73
2023/10/02 07:24:01;;;;;;;35.00;6.40;;;;;;;;;;5033856;28;20433;-73
2023/10/02 07:29:16;;;;;;;25.90;6.93;;;;;;;;;;5029324;28;20485;-73
2023/10/02 07:31:45;;;;;;;26.92;6.72;;;;;;;;;;5030710;28;20942;-73
2023/10/02 07:34:15;;;;;;;26.48;7.18;;;;;;;;;;5031495;28;20407;-72
2023/10/02 07:36:45;;;;;;;26.60;7.25;;;;;;;;;;5033250;28;20497;-74
2023/10/02 07:42:04;;;;;;;27.13;6.50;;;;;;;;;;5035240;28;20481;-71
2023/10/02 07:44:37;;;;;;;25.35;6.10;;;;;;;;;;5033693;28;20411;-74
2023/10/02 07:47:10;;;;;;;23.70;6.00;;;;;;;;;;5038500;28;20406;-72
2023/10/02 07:49:38;;;;;;;25.45;6.47;;;;;;;;;;5038725;28;20413;-76
2023/10/02 07:52:06;;;;;;;23.53;6.80;;;;;;;;;;5034496;28;20410;-73
2023/10/02 07:54:44;;;;;;;23.65;6.13;;;;;;;;;;5033157;28;21045;-73
2023/10/02 07:57:13;;;;;;;27.05;6.70;;;;;;;;;;5033177;28;20403;-73
2023/10/02 07:59:43;;;;;;;24.27;5.93;;;;;;;;;;5034941;28;20427;-73
2023/10/02 08:02:23;;;;;;;24.63;6.50;;;;;;;;;;5034360;28;20759;-74
2023/10/02 08:04:51;;;;;;;26.25;6.90;;;;;;;;;;5033092;28;20621;-74
2023/10/02 08:07:19;;;;;;;23.10;5.82;;;;;;;;;;5033109;28;20441;-73
2023/10/02 08:10:07;;;;;;;27.55;7.00;;;;;;;;;;5046805;28;20403;-71
2023/10/02 08:12:35;;;;;;;25.05;6.20;;;;;;;;;;5034111;28;20415;-73
2023/10/02 08:15:03;;;;;;;29.27;6.90;;;;;;;;;;5034436;28;20441;-73
2023/10/02 08:23:21;;;;;;;26.45;6.40;;;;;;;;;;4979774;28;20497;-73
2023/10/02 08:26:00;;;;;;;24.48;6.18;;;;;;;;;;5017425;28;20470;-71
2023/10/02 08:28:48;;;;;;;26.40;7.40;;;;;;;;;;5032385;28;20433;-76
2023/10/02 08:31:14;;;;;;;31.98;10.90;;;;;;;;;;5037101;28;20876;-74
2023/10/02 08:33:43;;;;;;;24.20;6.85;;;;;;;;;;5034102;28;20874;-73
2023/10/02 08:36:28;;;;;;;24.42;6.70;;;;;;;;;;5019761;28;20421;-72
2023/10/02 08:38:55;;;;;;;26.40;7.07;;;;;;;;;;5033950;28;20406;-72
2023/10/02 08:41:46;;;;;;;24.87;6.40;;;;;;;;;;5033891;28;21446;-73
2023/10/02 08:44:13;;;;;;;24.33;6.22;;;;;;;;;;5033746;28;20407;-72
2023/10/02 08:46:43;;;;;;;25.08;6.97;;;;;;;;;;5033043;28;20411;-73
2023/10/02 08:49:11;;;;;;;26.08;6.70;;;;;;;;;;5031120;28;20422;-72
2023/10/02 08:51:39;;;;;;;27.10;7.10;;;;;;;;;;5033489;28;20547;-74
2023/10/02 08:54:05;;;;;;;25.67;6.60;;;;;;;;;;5033160;28;20808;-72
2023/10/02 08:56:48;;;;;;;25.50;7.10;;;;;;;;;;5048702;28;20502;-73
2023/10/02 08:59:26;;;;;;;26.88;7.82;;;;;;;;;;5033744;28;20891;-74
2023/10/02 09:02:05;;;;;;;22.33;5.75;;;;;;;;;;5037985;28;20414;-73
2023/10/02 09:04:32;;;;;;;30.38;8.15;;;;;;;;;;5040134;28;20422;-72
2023/10/02 09:06:59;;;;;;;26.48;6.65;;;;;;;;;;5032874;28;20418;-72
2023/10/02 09:09:27;;;;;;;26.08;6.50;;;;;;;;;;5023653;28;20461;-73
2023/10/02 09:11:58;;;;;;;26.20;6.15;;;;;;;;;;5037691;28;20430;-71
2023/10/02 09:17:16;;;;;;;25.88;6.20;;;;;;;;;;5032680;28;20403;-71
2023/10/02 09:19:53;;;;;;;25.98;7.22;;;;;;;;;;5030718;28;20961;-72
2023/10/02 09:22:21;;;;;;;24.05;5.90;;;;;;;;;;5031334;28;20506;-73
2023/10/02 09:25:09;;;;;;;24.25;6.88;;;;;;;;;;5045563;28;20464;-73
2023/10/02 09:27:41;;;;;;;26.77;7.23;;;;;;;;;;5032012;28;20411;-80
2023/10/02 09:30:16;;;;;;;26.43;7.10;;;;;;;;;;5032215;28;20403;-80
2023/10/02 09:32:49;;;;;;;26.60;7.60;;;;;;;;;;5032427;28;20799;-78
2023/10/02 09:35:23;;;;;;;22.95;6.30;;;;;;;;;;5030275;28;20403;-79
2023/10/02 09:38:13;;;;;;;24.05;6.00;;;;;;;;;;5032757;28;20407;-79
2023/10/02 09:43:28;;;;;;;25.27;7.30;;;;;;;;;;5033269;28;20430;-79
2023/10/02 09:45:58;;;;;;;30.80;7.88;;;;;;;;;;5030363;28;20434;-79
2023/10/02 09:51:26;;;;;;;26.10;6.67;;;;;;;;;;5032206;28;20401;-76
2023/10/02 09:54:04;;;;;;;26.02;7.88;;;;;;;;;;5030737;28;20486;-78
2023/10/02 09:56:38;;;;;;;24.48;6.00;;;;;;;;;;5048008;28;20434;-78
2023/10/02 09:59:17;;;;;;;24.02;6.20;;;;;;;;;;5031729;28;20452;-77
2023/10/02 10:07:59;;;;;;;25.55;6.57;;;;;;;;;;5030415;28;20477;-78
2023/10/02 10:10:45;;;;;;;23.05;6.03;;;;;;;;;;5031162;28;20506;-79
2023/10/02 10:13:24;;;;;;;24.02;6.55;;;;;;;;;;5031535;28;20414;-79
2023/10/02 10:16:10;;;;;;;24.85;6.78;;;;;;;;;;5031381;28;20878;-78
2023/10/02 10:21:54;;;;;;;23.60;6.05;;;;;;;;;;5031407;28;20429;-79
2023/10/02 10:24:30;;;;;;;24.37;6.10;;;;;;;;;;5030759;28;20772;-79
2023/10/02 10:26:57;;;;;;;23.67;7.10;;;;;;;;;;5027619;28;20418;-78
2023/10/02 10:29:37;;;;;;;26.80;6.90;;;;;;;;;;5038691;28;20489;-77
2023/10/02 10:32:15;;;;;;;25.85;7.15;;;;;;;;;;5027840;28;20531;-76
2023/10/02 10:35:11;;;;;;;23.40;6.35;;;;;;;;;;5038970;28;20414;-78
2023/10/02 10:37:40;;;;;;;25.50;6.20;;;;;;;;;;5017562;28;20422;-79
2023/10/02 10:40:43;;;;;;;25.17;6.97;;;;;;;;;;5041923;28;20434;-81
2023/10/02 10:42:59;;;;;;;27.90;7.30;;;;;;;;;;5031711;28;20415;-81
2023/10/02 10:45:30;;;;;;;23.85;6.70;;;;;;;;;;5036984;28;20820;-79
2023/10/02 10:47:56;;;;;;;24.63;6.57;;;;;;;;;;5031466;28;20447;-81
2023/10/02 10:50:29;;;;;;;23.00;6.35;;;;;;;;;;5031406;28;20477;-81
2023/10/02 10:53:01;;;;;;;23.73;6.70;;;;;;;;;;5018966;28;20405;-79
2023/10/02 10:55:34;;;;;;;24.20;6.13;;;;;;;;;;5029697;28;20419;-81
2023/10/02 10:58:01;;;;;;;25.33;6.60;;;;;;;;;;5028636;28;20902;-81
2023/10/02 11:00:35;;;;;;;23.98;7.10;;;;;;;;;;5018338;28;20420;-78
2023/10/02 11:03:08;;;;;;;23.00;6.60;;;;;;;;;;5029663;28;20415;-80
2023/10/02 11:05:37;;;;;;;23.45;6.85;;;;;;;;;;5029974;28;20860;-79
2023/10/02 11:08:24;;;;;;;25.52;7.18;;;;;;;;;;5030439;28;20450;-79
2023/10/02 11:11:09;;;;;;;26.92;6.82;;;;;;;;;;5028945;28;20433;-78
2023/10/02 11:13:51;;;;;;;26.70;7.40;;;;;;;;;;5030406;28;20407;-79
2023/10/02 11:16:36;;;;;;;23.40;7.00;;;;;;;;;;5030755;28;20733;-79
2023/10/02 11:22:16;;;;;;;24.92;6.47;;;;;;;;;;5031007;28;20430;-80
2023/10/02 11:24:45;;;;;;;24.80;6.93;;;;;;;;;;5030920;28;20468;-79
2023/10/02 11:27:20;;;;;;;22.38;6.72;;;;;;;;;;5031449;28;20407;-79
2023/10/02 11:30:02;;;;;;;23.67;6.88;;;;;;;;;;5029704;28;20410;-81
2023/10/02 11:32:47;;;;;;;23.38;6.93;;;;;;;;;;5031142;28;20404;-80
2023/10/02 11:35:14;;;;;;;24.07;6.93;;;;;;;;;;5031403;28;20717;-79
2023/10/02 11:37:46;;;;;;;24.33;6.93;;;;;;;;;;5030681;28;20442;-79
2023/10/02 11:40:13;;;;;;;24.95;6.88;;;;;;;;;;5029523;28;20548;-79
2023/10/02 11:42:43;;;;;;;24.90;7.28;;;;;;;;;;5031688;28;20907;-80
2023/10/02 11:45:10;;;;;;;24.75;7.25;;;;;;;;;;5019420;28;20446;-79
2023/10/02 11:47:37;;;;;;;24.88;7.95;;;;;;;;;;5031858;28;20737;-79
2023/10/02 11:50:05;;;;;;;23.47;6.10;;;;;;;;;;5042081;28;20773;-80
2023/10/02 11:52:32;;;;;;;24.57;6.70;;;;;;;;;;5025231;28;20428;-79
2023/10/02 11:55:00;;;;;;;25.33;6.32;;;;;;;;;;5030911;28;20476;-80
2023/10/02 11:57:26;;;;;;;24.42;6.18;;;;;;;;;;5034558;28;20409;-80
2023/10/02 11:59:53;;;;;;;24.27;7.20;;;;;;;;;;5029610;28;20954;-79
2023/10/02 12:02:20;;;;;;;25.00;6.83;;;;;;;;;;5031493;28;20808;-80
2023/10/02 12:04:46;;;;;;;23.10;6.35;;;;;;;;;;5030747;28;20498;-80
2023/10/02 12:07:16;;;;;;;26.67;7.47;;;;;;;;;;5017644;28;20454;-78
2023/10/02 12:09:47;;;;;;;22.67;5.95;;;;;;;;;;5030337;28;20442;-78
2023/10/02 12:12:16;;;;;;;26.33;7.15;;;;;;;;;;5030252;28;20899;-79
2023/10/02 12:14:42;;;;;;;27.08;7.68;;;;;;;;;;5029371;28;20419;-79
2023/10/02 12:17:11;;;;;;;27.67;7.57;;;;;;;;;;5031081;28;20407;-78
2023/10/02 12:19:40;;;;;;;25.27;7.30;;;;;;;;;;5043673;28;20411;-78
2023/10/02 12:22:06;;;;;;;25.95;7.75;;;;;;;;;;5028666;28;20514;-79
2023/10/02 12:24:36;;;;;;;26.93;8.73;;;;;;;;;;5032308;28;20413;-79
2023/10/02 12:27:04;;;;;;;26.30;7.65;;;;;;;;;;5034382;28;20411;-79
2023/10/02 12:29:32;;;;;;;23.75;7.22;;;;;;;;;;5034899;28;20502;-79
2023/10/02 12:32:00;;;;;;;25.95;7.88;;;;;;;;;;5034731;28;20422;-77
2023/10/02 12:34:28;;;;;;;24.88;6.53;;;;;;;;;;5035426;28;20406;-77
2023/10/02 12:36:55;;;;;;;30.20;9.43;;;;;;;;;;5034969;28;20403;-78
2023/10/02 12:39:22;;;;;;;26.80;7.88;;;;;;;;;;5034007;28;20398;-80
2023/10/02 12:41:49;;;;;;;25.17;7.47;;;;;;;;;;5030951;28;20432;-78
2023/10/02 12:44:16;;;;;;;24.37;6.53;;;;;;;;;;5033904;28;20411;-80
2023/10/02 12:46:49;;;;;;;24.52;7.00;;;;;;;;;;5033018;28;20407;-78
2023/10/02 12:49:17;;;;;;;23.83;6.80;;;;;;;;;;5033825;28;20403;-80
2023/10/02 12:51:44;;;;;;;25.63;7.20;;;;;;;;;;5033732;28;20406;-80
2023/10/02 12:54:11;;;;;;;30.67;7.53;;;;;;;;;;5033928;28;20413;-79
2023/10/02 12:56:39;;;;;;;26.75;7.30;;;;;;;;;;5037792;28;20421;-79
2023/10/02 12:59:08;;;;;;;25.95;6.95;;;;;;;;;;5031762;28;20744;-79
2023/10/02 13:01:34;;;;;;;26.70;6.95;;;;;;;;;;5032964;28;20923;-78
2023/10/02 13:04:02;;;;;;;24.25;7.07;;;;;;;;;;5030000;28;20412;-78
2023/10/02 13:06:32;;;;;;;24.92;7.20;;;;;;;;;;5033074;28;20897;-78
2023/10/02 13:09:09;;;;;;;24.05;6.95;;;;;;;;;;5033044;28;20421;-77
2023/10/02 13:11:44;;;;;;;26.83;7.50;;;;;;;;;;5031346;28;20408;-78
2023/10/02 13:14:16;;;;;;;23.93;6.40;;;;;;;;;;5032524;28;20419;-76
2023/10/02 13:16:46;;;;;;;24.92;6.80;;;;;;;;;;5005816;28;20423;-79
2023/10/02 13:19:15;;;;;;;23.87;6.73;;;;;;;;;;5029881;28;20510;-76
2023/10/02 13:21:41;;;;;;;26.40;7.43;;;;;;;;;;5031668;28;20418;-78
2023/10/02 13:24:14;;;;;;;23.30;6.28;;;;;;;;;;5032908;28;20478;-78
2023/10/02 13:26:41;;;;;;;25.40;7.60;;;;;;;;;;5039835;28;20418;-78
2023/10/02 13:29:08;;;;;;;25.55;7.38;;;;;;;;;;5016668;28;20419;-79
2023/10/02 13:31:34;;;;;;;24.37;7.07;;;;;;;;;;5032099;28;20474;-77
2023/10/02 13:34:05;;;;;;;23.75;6.93;;;;;;;;;;5033036;28;20403;-78
2023/10/02 13:36:33;;;;;;;22.98;6.60;;;;;;;;;;5031788;28;20403;-77
2023/10/02 13:39:04;;;;;;;26.25;7.15;;;;;;;;;;5021238;28;20415;-79
2023/10/02 13:41:31;;;;;;;24.90;6.80;;;;;;;;;;5031615;28;20908;-77
2023/10/02 13:43:59;;;;;;;25.27;7.00;;;;;;;;;;5044572;28;20419;-77
2023/10/02 13:46:26;;;;;;;22.50;6.88;;;;;;;;;;5035575;28;20465;-76
2023/10/02 13:48:53;;;;;;;24.83;7.00;;;;;;;;;;5032885;28;20418;-80
2023/10/02 13:51:20;;;;;;;25.15;6.65;;;;;;;;;;5037358;28;20429;-77
2023/10/02 13:53:49;;;;;;;22.80;6.33;;;;;;;;;;5031183;28;20423;-79
2023/10/02 13:56:17;;;;;;;24.08;6.95;;;;;;;;;;5032696;28;20411;-78
2023/10/02 13:58:51;;;;;;;25.65;6.72;;;;;;;;;;5038304;28;20962;-78
2023/10/02 14:01:21;;;;;;;23.77;6.45;;;;;;;;;;5032767;28;20447;-76
2023/10/02 14:03:49;;;;;;;24.27;6.70;;;;;;;;;;5032292;28;20807;-78
2023/10/02 14:06:18;;;;;;;25.70;6.50;;;;;;;;;;5047919;28;20403;-78
2023/10/02 14:08:45;;;;;;;27.50;7.72;;;;;;;;;;5036893;28;20469;-79
2023/10/02 14:11:16;;;;;;;24.23;6.87;;;;;;;;;;5032229;28;20399;-78
2023/10/02 14:13:47;;;;;;;23.67;6.50;;;;;;;;;;5045381;28;20421;-79
2023/10/02 14:16:14;;;;;;;25.10;6.97;;;;;;;;;;5022933;28;20423;-77
2023/10/02 14:18:41;;;;;;;24.00;7.18;;;;;;;;;;5044466;28;20421;-77
2023/10/02 14:21:13;;;;;;;24.10;6.10;;;;;;;;;;5032159;28;20913;-78
2023/10/02 14:23:40;;;;;;;23.65;7.53;;;;;;;;;;5031969;28;20879;-79
2023/10/02 14:26:09;;;;;;;24.20;6.80;;;;;;;;;;5026793;28;20857;-78
2023/10/02 14:28:37;;;;;;;24.38;6.50;;;;;;;;;;5031336;28;20411;-79
2023/10/02 14:31:05;;;;;;;24.10;6.00;;;;;;;;;;5020189;28;20423;-78
2023/10/02 14:33:33;;;;;;;23.50;6.35;;;;;;;;;;5033690;28;20486;-80
2023/10/02 14:36:06;;;;;;;23.13;6.10;;;;;;;;;;5028747;28;20441;-78
2023/10/02 14:38:33;;;;;;;23.08;6.00;;;;;;;;;;5030210;28;20492;-79
2023/10/02 14:41:01;;;;;;;25.10;6.63;;;;;;;;;;5033423;28;20420;-79
2023/10/02 14:43:29;;;;;;;23.80;6.15;;;;;;;;;;5034204;28;20425;-79
2023/10/02 14:45:57;;;;;;;24.45;7.10;;;;;;;;;;5032909;28;20803;-78
2023/10/02 14:48:24;;;;;;;24.50;5.93;;;;;;;;;;5010792;28;20440;-73
2023/10/02 14:51:12;;;;;;;24.55;6.20;;;;;;;;;;5029493;28;20760;-72
2023/10/02 14:53:39;;;;;;;23.13;6.05;;;;;;;;;;5040108;28;20533;-72
2023/10/02 14:56:06;;;;;;;23.13;6.75;;;;;;;;;;5031671;28;20776;-72
2023/10/02 14:58:33;;;;;;;26.15;7.55;;;;;;;;;;5031955;28;20407;-73
2023/10/02 15:01:11;;;;;;;23.65;6.28;;;;;;;;;;5030675;28;20887;-72
2023/10/02 15:03:43;;;;;;;24.30;6.53;;;;;;;;;;5031068;28;20404;-72
2023/10/02 15:06:10;;;;;;;26.17;7.40;;;;;;;;;;5031850;28;20407;-72
2023/10/02 15:08:38;;;;;;;23.63;6.35;;;;;;;;;;5030837;28;20418;-72
2023/10/02 15:11:05;;;;;;;22.40;6.43;;;;;;;;;;5031363;28;20415;-72
2023/10/02 15:13:33;;;;;;;24.50;6.93;;;;;;;;;;5030220;28;20874;-73
2023/10/02 15:16:00;;;;;;;24.75;6.07;;;;;;;;;;5030307;28;20900;-72
2023/10/02 15:18:28;;;;;;;29.60;7.93;;;;;;;;;;5030774;28;20422;-72
2023/10/02 15:20:55;;;;;;;25.25;5.82;;;;;;;;;;5013034;28;20421;-71
2023/10/02 15:23:22;;;;;;;27.67;7.03;;;;;;;;;;5031226;28;20495;-72
2023/10/02 15:25:50;;;;;;;27.15;6.78;;;;;;;;;;5027307;28;20412;-72
2023/10/02 15:28:19;;;;;;;25.08;7.75;;;;;;;;;;5037592;28;20422;-73
2023/10/02 15:30:45;;;;;;;25.00;6.50;;;;;;;;;;5031372;28;20457;-77
2023/10/02 15:33:12;;;;;;;27.23;6.88;;;;;;;;;;5031754;28;20403;-79
2023/10/02 15:35:41;;;;;;;22.70;6.05;;;;;;;;;;5028915;28;20407;-79
2023/10/02 15:38:08;;;;;;;23.30;6.78;;;;;;;;;;5030149;28;20418;-78
2023/10/02 15:40:36;;;;;;;24.63;6.72;;;;;;;;;;5030276;28;20490;-79
2023/10/02 15:43:03;;;;;;;25.73;7.15;;;;;;;;;;5030492;28;20902;-77
2023/10/02 15:45:31;;;;;;;23.77;6.63;;;;;;;;;;5031955;28;20403;-79
2023/10/02 15:47:58;;;;;;;24.60;7.00;;;;;;;;;;5030185;28;20467;-77
2023/10/02 15:50:26;;;;;;;24.02;7.18;;;;;;;;;;5046825;28;20406;-79
2023/10/02 15:52:56;;;;;;;25.15;7.25;;;;;;;;;;5031175;28;20410;-79